sensor_id;sensor_type;location;lat;lon;timestamp;temperature;humidity
4795;DHT22;2411;47.060;15.064;2023-05-10T00:00:17;8.60;55.20
4795;DHT22;2411;47.060;15.064;2023-05-10T00:03:05;8.50;44.90
4795;DHT22;2411;47.060;15.064;2023-05-10T00:05:53;8.30;47.20
4795;DHT22;2411;47.060;15.064;2023-05-10T00:08:40;8.40;46.80
4795;DHT22;2411;47.060;15.064;2023-05-10T00:11:28;8.40;41.30
4795;DHT22;2411;47.060;15.064;2023-05-10T00:14:15;8.40;36.00
4795;DHT22;2411;47.060;15.064;2023-05-10T00:17:02;8.30;36.20
4795;DHT22;2411;47.060;15.064;2023-05-10T00:19:50;8.20;31.90
4795;DHT22;2411;47.060;15.064;2023-05-10T00:22:37;8.10;32.20
4795;DHT22;2411;47.060;15.064;2023-05-10T00:25:25;8.00;29.30
4795;DHT22;2411;47.060;15.064;2023-05-10T00:28:12;7.80;32.60
4795;DHT22;2411;47.060;15.064;2023-05-10T00:30:59;7.80;51.40
4795;DHT22;2411;47.060;15.064;2023-05-10T00:33:47;7.80;40.60
4795;DHT22;2411;47.060;15.064;2023-05-10T00:36:34;7.70;40.90
4795;DHT22;2411;47.060;15.064;2023-05-10T00:39:22;7.60;44.60
4795;DHT22;2411;47.060;15.064;2023-05-10T00:42:09;7.60;52.90
4795;DHT22;2411;47.060;15.064;2023-05-10T00:44:57;7.60;43.60
4795;DHT22;2411;47.060;15.064;2023-05-10T00:47:44;7.50;47.20
4795;DHT22;2411;47.060;15.064;2023-05-10T00:50:33;7.50;42.90
4795;DHT22;2411;47.060;15.064;2023-05-10T00:53:21;7.40;43.00
4795;DHT22;2411;47.060;15.064;2023-05-10T00:56:09;7.30;39.10
4795;DHT22;2411;47.060;15.064;2023-05-10T00:58:56;7.00;47.60
4795;DHT22;2411;47.060;15.064;2023-05-10T01:01:44;6.90;93.60
4795;DHT22;2411;47.060;15.064;2023-05-10T01:04:33;7.00;99.90
4795;DHT22;2411;47.060;15.064;2023-05-10T01:07:20;7.00;99.90
4795;DHT22;2411;47.060;15.064;2023-05-10T01:10:08;7.10;99.90
4795;DHT22;2411;47.060;15.064;2023-05-10T01:12:56;7.10;99.90
4795;DHT22;2411;47.060;15.064;2023-05-10T01:15:44;7.10;99.90
4795;DHT22;2411;47.060;15.064;2023-05-10T01:18:38;7.10;99.90
4795;DHT22;2411;47.060;15.064;2023-05-10T01:28:27;6.80;99.90
4795;DHT22;2411;47.060;15.064;2023-05-10T01:34:17;6.80;99.90
4795;DHT22;2411;47.060;15.064;2023-05-10T01:37:10;6.80;99.90
4795;DHT22;2411;47.060;15.064;2023-05-10T01:40:08;6.70;99.90
4795;DHT22;2411;47.060;15.064;2023-05-10T01:43:03;6.60;99.90
4795;DHT22;2411;47.060;15.064;2023-05-10T01:46:07;6.50;99.90
4795;DHT22;2411;47.060;15.064;2023-05-10T01:49:00;6.50;99.90
4795;DHT22;2411;47.060;15.064;2023-05-10T01:51:52;6.50;99.90
4795;DHT22;2411;47.060;15.064;2023-05-10T01:54:48;6.50;99.90
4795;DHT22;2411;47.060;15.064;2023-05-10T01:57:38;6.40;92.70
4795;DHT22;2411;47.060;15.064;2023-05-10T02:00:27;6.50;87.70
4795;DHT22;2411;47.060;15.064;2023-05-10T02:03:16;6.40;64.80
4795;DHT22;2411;47.060;15.064;2023-05-10T02:06:05;6.10;52.80
4795;DHT22;2411;47.060;15.064;2023-05-10T02:08:54;6.00;83.90
4795;DHT22;2411;47.060;15.064;2023-05-10T02:11:43;6.10;93.30
4795;DHT22;2411;47.060;15.064;2023-05-10T02:14:34;6.10;80.60
4795;DHT22;2411;47.060;15.064;2023-05-10T02:17:22;6.10;73.20
4795;DHT22;2411;47.060;15.064;2023-05-10T02:20:11;6.00;65.90
4795;DHT22;2411;47.060;15.064;2023-05-10T02:23:01;6.00;59.90
4795;DHT22;2411;47.060;15.064;2023-05-10T02:25:51;6.00;65.30
4795;DHT22;2411;47.060;15.064;2023-05-10T02:28:41;6.00;54.00
4795;DHT22;2411;47.060;15.064;2023-05-10T02:31:32;6.00;54.70
4795;DHT22;2411;47.060;15.064;2023-05-10T02:34:22;5.80;53.90
4795;DHT22;2411;47.060;15.064;2023-05-10T02:37:11;5.70;56.10
4795;DHT22;2411;47.060;15.064;2023-05-10T02:39:59;5.60;65.40
4795;DHT22;2411;47.060;15.064;2023-05-10T02:42:48;5.70;98.70
4795;DHT22;2411;47.060;15.064;2023-05-10T02:45:38;5.70;90.20
4795;DHT22;2411;47.060;15.064;2023-05-10T02:48:26;5.60;94.00
4795;DHT22;2411;47.060;15.064;2023-05-10T02:51:15;5.60;99.90
4795;DHT22;2411;47.060;15.064;2023-05-10T02:54:11;5.40;99.90
4795;DHT22;2411;47.060;15.064;2023-05-10T02:57:02;5.40;99.90
4795;DHT22;2411;47.060;15.064;2023-05-10T02:59:51;5.20;99.90
4795;DHT22;2411;47.060;15.064;2023-05-10T03:02:38;5.30;99.90
4795;DHT22;2411;47.060;15.064;2023-05-10T03:05:25;5.40;99.90
4795;DHT22;2411;47.060;15.064;2023-05-10T03:08:13;5.40;99.90
4795;DHT22;2411;47.060;15.064;2023-05-10T03:11:28;5.50;99.90
4795;DHT22;2411;47.060;15.064;2023-05-10T03:20:50;5.60;99.90
4795;DHT22;2411;47.060;15.064;2023-05-10T03:23:52;5.40;99.90
4795;DHT22;2411;47.060;15.064;2023-05-10T03:26:43;5.30;99.90
4795;DHT22;2411;47.060;15.064;2023-05-10T03:29:32;5.10;99.90
4795;DHT22;2411;47.060;15.064;2023-05-10T03:32:20;5.20;99.90
4795;DHT22;2411;47.060;15.064;2023-05-10T03:35:09;5.30;99.90
4795;DHT22;2411;47.060;15.064;2023-05-10T03:37:56;5.30;93.50
4795;DHT22;2411;47.060;15.064;2023-05-10T03:40:44;5.20;75.70
4795;DHT22;2411;47.060;15.064;2023-05-10T03:43:31;5.30;67.50
4795;DHT22;2411;47.060;15.064;2023-05-10T03:46:18;5.20;60.70
4795;DHT22;2411;47.060;15.064;2023-05-10T03:49:06;5.20;84.60
4795;DHT22;2411;47.060;15.064;2023-05-10T03:51:53;5.10;83.50
4795;DHT22;2411;47.060;15.064;2023-05-10T03:54:41;5.20;95.00
4795;DHT22;2411;47.060;15.064;2023-05-10T03:57:28;5.30;99.90
4795;DHT22;2411;47.060;15.064;2023-05-10T04:00:16;5.30;99.90
4795;DHT22;2411;47.060;15.064;2023-05-10T04:03:04;5.40;99.90
4795;DHT22;2411;47.060;15.064;2023-05-10T04:06:02;5.50;99.90
4795;DHT22;2411;47.060;15.064;2023-05-10T04:08:49;5.60;99.90
4795;DHT22;2411;47.060;15.064;2023-05-10T04:11:37;5.70;95.20
4795;DHT22;2411;47.060;15.064;2023-05-10T04:14:24;5.80;64.80
4795;DHT22;2411;47.060;15.064;2023-05-10T04:17:12;5.70;57.80
4795;DHT22;2411;47.060;15.064;2023-05-10T04:19:59;5.80;51.90
4795;DHT22;2411;47.060;15.064;2023-05-10T04:22:47;5.90;52.30
4795;DHT22;2411;47.060;15.064;2023-05-10T04:25:34;6.10;51.70
4795;DHT22;2411;47.060;15.064;2023-05-10T04:28:22;6.20;46.90
4795;DHT22;2411;47.060;15.064;2023-05-10T04:31:10;6.30;39.50
4795;DHT22;2411;47.060;15.064;2023-05-10T04:33:57;6.30;43.80
4795;DHT22;2411;47.060;15.064;2023-05-10T04:36:45;6.30;44.80
4795;DHT22;2411;47.060;15.064;2023-05-10T04:39:32;6.50;40.80
4795;DHT22;2411;47.060;15.064;2023-05-10T04:42:20;6.60;36.30
4795;DHT22;2411;47.060;15.064;2023-05-10T04:45:07;6.80;36.30
4795;DHT22;2411;47.060;15.064;2023-05-10T04:47:56;6.90;35.00
4795;DHT22;2411;47.060;15.064;2023-05-10T04:50:44;7.00;34.60
4795;DHT22;2411;47.060;15.064;2023-05-10T04:53:31;7.20;34.40
4795;DHT22;2411;47.060;15.064;2023-05-10T04:56:19;7.30;25.90
4795;DHT22;2411;47.060;15.064;2023-05-10T04:59:06;7.40;23.90
4795;DHT22;2411;47.060;15.064;2023-05-10T05:01:54;7.40;21.60
4795;DHT22;2411;47.060;15.064;2023-05-10T05:04:41;7.50;23.30
4795;DHT22;2411;47.060;15.064;2023-05-10T05:07:29;7.50;19.10
4795;DHT22;2411;47.060;15.064;2023-05-10T05:10:17;7.70;18.50
4795;DHT22;2411;47.060;15.064;2023-05-10T05:13:05;7.90;14.10
4795;DHT22;2411;47.060;15.064;2023-05-10T05:15:53;8.00;12.50
4795;DHT22;2411;47.060;15.064;2023-05-10T05:18:40;8.20;10.60
4795;DHT22;2411;47.060;15.064;2023-05-10T05:21:28;8.30;11.60
4795;DHT22;2411;47.060;15.064;2023-05-10T05:24:15;8.50;10.60
4795;DHT22;2411;47.060;15.064;2023-05-10T05:27:03;8.60;7.90
4795;DHT22;2411;47.060;15.064;2023-05-10T05:29:55;8.70;6.70
4795;DHT22;2411;47.060;15.064;2023-05-10T05:32:43;8.80;3.30
4795;DHT22;2411;47.060;15.064;2023-05-10T05:35:30;9.10;1.80
4795;DHT22;2411;47.060;15.064;2023-05-10T05:38:17;9.30;3.50
4795;DHT22;2411;47.060;15.064;2023-05-10T05:41:05;9.40;1.00
4795;DHT22;2411;47.060;15.064;2023-05-10T05:43:52;9.50;1.00
4795;DHT22;2411;47.060;15.064;2023-05-10T05:46:40;9.60;2.10
4795;DHT22;2411;47.060;15.064;2023-05-10T05:49:27;9.60;1.00
4795;DHT22;2411;47.060;15.064;2023-05-10T05:52:14;9.80;1.00
4795;DHT22;2411;47.060;15.064;2023-05-10T05:55:02;9.90;1.00
4795;DHT22;2411;47.060;15.064;2023-05-10T05:57:50;9.80;1.00
4795;DHT22;2411;47.060;15.064;2023-05-10T06:00:38;9.70;1.00
4795;DHT22;2411;47.060;15.064;2023-05-10T06:03:25;10.00;1.00
4795;DHT22;2411;47.060;15.064;2023-05-10T06:06:13;10.10;1.00
4795;DHT22;2411;47.060;15.064;2023-05-10T06:09:00;10.40;1.00
4795;DHT22;2411;47.060;15.064;2023-05-10T06:11:48;10.80;1.00
4795;DHT22;2411;47.060;15.064;2023-05-10T06:14:35;11.10;1.00
4795;DHT22;2411;47.060;15.064;2023-05-10T06:17:22;11.40;1.00
4795;DHT22;2411;47.060;15.064;2023-05-10T06:20:11;11.70;1.00
4795;DHT22;2411;47.060;15.064;2023-05-10T06:22:59;11.70;1.00
4795;DHT22;2411;47.060;15.064;2023-05-10T06:25:46;11.90;1.00
4795;DHT22;2411;47.060;15.064;2023-05-10T06:28:33;12.20;1.00
4795;DHT22;2411;47.060;15.064;2023-05-10T06:31:21;12.40;1.00
4795;DHT22;2411;47.060;15.064;2023-05-10T06:34:08;12.70;1.00
4795;DHT22;2411;47.060;15.064;2023-05-10T06:36:56;12.60;1.00
4795;DHT22;2411;47.060;15.064;2023-05-10T06:39:44;13.00;1.00
4795;DHT22;2411;47.060;15.064;2023-05-10T06:42:31;12.80;1.00
4795;DHT22;2411;47.060;15.064;2023-05-10T06:45:19;12.90;1.00
4795;DHT22;2411;47.060;15.064;2023-05-10T06:48:07;13.10;1.00
4795;DHT22;2411;47.060;15.064;2023-05-10T06:50:55;13.10;1.00
4795;DHT22;2411;47.060;15.064;2023-05-10T06:53:42;13.40;1.00
4795;DHT22;2411;47.060;15.064;2023-05-10T06:56:29;13.50;1.00
4795;DHT22;2411;47.060;15.064;2023-05-10T06:59:17;13.80;1.00
4795;DHT22;2411;47.060;15.064;2023-05-10T07:02:06;13.50;1.00
4795;DHT22;2411;47.060;15.064;2023-05-10T07:04:53;13.40;1.00
4795;DHT22;2411;47.060;15.064;2023-05-10T07:07:41;13.50;1.00
4795;DHT22;2411;47.060;15.064;2023-05-10T07:10:29;13.80;1.00
4795;DHT22;2411;47.060;15.064;2023-05-10T07:13:16;14.00;1.00
4795;DHT22;2411;47.060;15.064;2023-05-10T07:16:04;13.80;1.00
4795;DHT22;2411;47.060;15.064;2023-05-10T07:18:53;14.10;1.00
4795;DHT22;2411;47.060;15.064;2023-05-10T07:21:40;14.10;1.00
4795;DHT22;2411;47.060;15.064;2023-05-10T07:24:30;14.20;1.00
4795;DHT22;2411;47.060;15.064;2023-05-10T07:27:18;14.20;1.00
4795;DHT22;2411;47.060;15.064;2023-05-10T07:30:06;14.40;1.00
4795;DHT22;2411;47.060;15.064;2023-05-10T07:32:54;14.50;1.00
4795;DHT22;2411;47.060;15.064;2023-05-10T07:35:42;14.30;1.00
4795;DHT22;2411;47.060;15.064;2023-05-10T07:38:30;14.20;1.00
4795;DHT22;2411;47.060;15.064;2023-05-10T07:41:17;14.40;1.00
4795;DHT22;2411;47.060;15.064;2023-05-10T07:44:05;14.30;1.00
4795;DHT22;2411;47.060;15.064;2023-05-10T07:46:53;14.30;1.00
4795;DHT22;2411;47.060;15.064;2023-05-10T07:49:40;14.20;1.00
4795;DHT22;2411;47.060;15.064;2023-05-10T07:52:28;14.20;1.00
4795;DHT22;2411;47.060;15.064;2023-05-10T07:55:15;14.40;1.00
4795;DHT22;2411;47.060;15.064;2023-05-10T07:58:03;14.70;1.00
4795;DHT22;2411;47.060;15.064;2023-05-10T08:00:51;14.60;1.00
4795;DHT22;2411;47.060;15.064;2023-05-10T08:03:38;14.80;1.00
4795;DHT22;2411;47.060;15.064;2023-05-10T08:06:26;14.80;1.00
4795;DHT22;2411;47.060;15.064;2023-05-10T08:09:15;14.90;1.00
4795;DHT22;2411;47.060;15.064;2023-05-10T08:12:03;14.80;1.00
4795;DHT22;2411;47.060;15.064;2023-05-10T08:14:50;15.00;1.00
4795;DHT22;2411;47.060;15.064;2023-05-10T08:17:38;14.90;1.00
4795;DHT22;2411;47.060;15.064;2023-05-10T08:20:25;14.90;1.00
4795;DHT22;2411;47.060;15.064;2023-05-10T08:23:13;15.20;1.00
4795;DHT22;2411;47.060;15.064;2023-05-10T08:26:00;14.90;1.00
4795;DHT22;2411;47.060;15.064;2023-05-10T08:28:47;14.90;1.00
4795;DHT22;2411;47.060;15.064;2023-05-10T08:31:35;15.00;1.00
4795;DHT22;2411;47.060;15.064;2023-05-10T08:34:23;15.10;1.00
4795;DHT22;2411;47.060;15.064;2023-05-10T08:37:11;14.90;1.00
4795;DHT22;2411;47.060;15.064;2023-05-10T08:40:00;15.10;1.00
4795;DHT22;2411;47.060;15.064;2023-05-10T08:43:08;15.00;1.00
4795;DHT22;2411;47.060;15.064;2023-05-10T08:45:56;15.20;1.00
4795;DHT22;2411;47.060;15.064;2023-05-10T08:48:47;15.10;1.00
4795;DHT22;2411;47.060;15.064;2023-05-10T08:51:36;15.40;1.00
4795;DHT22;2411;47.060;15.064;2023-05-10T08:54:27;15.30;1.00
4795;DHT22;2411;47.060;15.064;2023-05-10T08:57:15;15.30;1.00
4795;DHT22;2411;47.060;15.064;2023-05-10T09:00:03;15.60;1.00
4795;DHT22;2411;47.060;15.064;2023-05-10T09:02:50;15.70;1.00
4795;DHT22;2411;47.060;15.064;2023-05-10T09:05:38;15.80;1.00
4795;DHT22;2411;47.060;15.064;2023-05-10T09:08:26;16.00;1.00
4795;DHT22;2411;47.060;15.064;2023-05-10T09:11:14;16.10;1.00
4795;DHT22;2411;47.060;15.064;2023-05-10T09:14:01;16.00;1.00
4795;DHT22;2411;47.060;15.064;2023-05-10T09:16:49;15.90;1.00
4795;DHT22;2411;47.060;15.064;2023-05-10T09:19:37;15.80;1.00
4795;DHT22;2411;47.060;15.064;2023-05-10T09:22:25;16.00;1.00
4795;DHT22;2411;47.060;15.064;2023-05-10T09:25:14;15.90;1.00
4795;DHT22;2411;47.060;15.064;2023-05-10T09:28:06;15.90;1.00
4795;DHT22;2411;47.060;15.064;2023-05-10T09:30:54;16.60;1.00
4795;DHT22;2411;47.060;15.064;2023-05-10T09:33:46;17.30;1.00
4795;DHT22;2411;47.060;15.064;2023-05-10T09:36:34;17.10;1.00
4795;DHT22;2411;47.060;15.064;2023-05-10T09:39:33;17.20;1.00
4795;DHT22;2411;47.060;15.064;2023-05-10T09:42:20;17.00;1.00
4795;DHT22;2411;47.060;15.064;2023-05-10T09:45:08;16.90;1.00
4795;DHT22;2411;47.060;15.064;2023-05-10T09:47:57;16.20;1.00
4795;DHT22;2411;47.060;15.064;2023-05-10T09:50:44;16.30;1.00
4795;DHT22;2411;47.060;15.064;2023-05-10T09:53:32;16.70;1.00
4795;DHT22;2411;47.060;15.064;2023-05-10T09:56:38;16.60;1.00
4795;DHT22;2411;47.060;15.064;2023-05-10T09:59:28;16.90;1.00
4795;DHT22;2411;47.060;15.064;2023-05-10T10:02:16;16.80;1.00
4795;DHT22;2411;47.060;15.064;2023-05-10T10:05:06;16.90;1.00
4795;DHT22;2411;47.060;15.064;2023-05-10T10:07:56;16.60;1.00
4795;DHT22;2411;47.060;15.064;2023-05-10T10:10:44;16.50;1.00
4795;DHT22;2411;47.060;15.064;2023-05-10T10:13:33;16.90;1.00
4795;DHT22;2411;47.060;15.064;2023-05-10T10:16:21;16.60;1.00
4795;DHT22;2411;47.060;15.064;2023-05-10T10:19:08;16.50;1.00
4795;DHT22;2411;47.060;15.064;2023-05-10T10:21:56;16.50;1.00
4795;DHT22;2411;47.060;15.064;2023-05-10T10:24:43;16.50;1.00
4795;DHT22;2411;47.060;15.064;2023-05-10T10:30:47;16.00;1.00
4795;DHT22;2411;47.060;15.064;2023-05-10T10:36:27;16.10;1.00
4795;DHT22;2411;47.060;15.064;2023-05-10T10:39:15;16.60;1.00
4795;DHT22;2411;47.060;15.064;2023-05-10T10:42:04;16.70;1.00
4795;DHT22;2411;47.060;15.064;2023-05-10T10:45:11;16.50;1.00
4795;DHT22;2411;47.060;15.064;2023-05-10T10:48:25;16.60;1.00
4795;DHT22;2411;47.060;15.064;2023-05-10T10:51:13;16.50;1.00
4795;DHT22;2411;47.060;15.064;2023-05-10T10:54:09;16.40;1.00
4795;DHT22;2411;47.060;15.064;2023-05-10T10:57:17;16.60;1.00
4795;DHT22;2411;47.060;15.064;2023-05-10T11:03:12;17.00;1.00
4795;DHT22;2411;47.060;15.064;2023-05-10T11:06:06;17.40;1.00
4795;DHT22;2411;47.060;15.064;2023-05-10T11:08:54;17.40;1.00
4795;DHT22;2411;47.060;15.064;2023-05-10T11:11:52;17.60;1.00
4795;DHT22;2411;47.060;15.064;2023-05-10T11:14:42;17.30;1.00
4795;DHT22;2411;47.060;15.064;2023-05-10T11:17:30;17.30;1.00
4795;DHT22;2411;47.060;15.064;2023-05-10T11:20:18;17.70;1.00
4795;DHT22;2411;47.060;15.064;2023-05-10T11:23:15;18.10;1.00
4795;DHT22;2411;47.060;15.064;2023-05-10T11:26:08;18.30;1.00
4795;DHT22;2411;47.060;15.064;2023-05-10T11:29:00;18.20;1.00
4795;DHT22;2411;47.060;15.064;2023-05-10T11:31:53;18.40;1.00
4795;DHT22;2411;47.060;15.064;2023-05-10T11:34:47;18.20;1.00
4795;DHT22;2411;47.060;15.064;2023-05-10T11:37:38;18.20;1.00
4795;DHT22;2411;47.060;15.064;2023-05-10T11:40:28;18.30;1.00
4795;DHT22;2411;47.060;15.064;2023-05-10T11:43:16;18.30;1.00
4795;DHT22;2411;47.060;15.064;2023-05-10T11:46:09;18.50;1.00
4795;DHT22;2411;47.060;15.064;2023-05-10T11:48:59;18.20;1.00
4795;DHT22;2411;47.060;15.064;2023-05-10T11:52:08;18.10;1.00
4795;DHT22;2411;47.060;15.064;2023-05-10T11:54:55;18.00;1.00
4795;DHT22;2411;47.060;15.064;2023-05-10T11:57:43;18.10;1.00
4795;DHT22;2411;47.060;15.064;2023-05-10T12:00:32;18.50;1.00
4795;DHT22;2411;47.060;15.064;2023-05-10T12:03:20;18.60;1.00
4795;DHT22;2411;47.060;15.064;2023-05-10T12:06:08;18.40;1.00
4795;DHT22;2411;47.060;15.064;2023-05-10T12:08:55;19.00;1.00
4795;DHT22;2411;47.060;15.064;2023-05-10T12:11:43;18.50;1.00
4795;DHT22;2411;47.060;15.064;2023-05-10T12:14:34;18.70;1.00
4795;DHT22;2411;47.060;15.064;2023-05-10T12:17:22;19.10;1.00
4795;DHT22;2411;47.060;15.064;2023-05-10T12:20:21;19.10;1.00
4795;DHT22;2411;47.060;15.064;2023-05-10T12:23:09;19.30;1.00
4795;DHT22;2411;47.060;15.064;2023-05-10T12:26:02;19.80;1.00
4795;DHT22;2411;47.060;15.064;2023-05-10T12:28:54;20.00;1.00
4795;DHT22;2411;47.060;15.064;2023-05-10T12:31:54;19.80;1.00
4795;DHT22;2411;47.060;15.064;2023-05-10T12:34:42;19.60;1.00
4795;DHT22;2411;47.060;15.064;2023-05-10T12:37:29;19.80;1.00
4795;DHT22;2411;47.060;15.064;2023-05-10T12:40:17;19.90;1.00
4795;DHT22;2411;47.060;15.064;2023-05-10T12:43:05;19.90;1.00
4795;DHT22;2411;47.060;15.064;2023-05-10T12:45:52;19.90;1.00
4795;DHT22;2411;47.060;15.064;2023-05-10T12:48:41;19.90;1.00
4795;DHT22;2411;47.060;15.064;2023-05-10T12:51:29;19.80;1.00
4795;DHT22;2411;47.060;15.064;2023-05-10T12:54:17;19.60;1.00
4795;DHT22;2411;47.060;15.064;2023-05-10T12:57:05;19.40;1.00
4795;DHT22;2411;47.060;15.064;2023-05-10T12:59:52;19.20;1.00
4795;DHT22;2411;47.060;15.064;2023-05-10T13:02:40;19.00;1.00
4795;DHT22;2411;47.060;15.064;2023-05-10T13:05:27;18.70;1.00
4795;DHT22;2411;47.060;15.064;2023-05-10T13:08:15;18.50;1.00
4795;DHT22;2411;47.060;15.064;2023-05-10T13:11:02;18.50;1.00
4795;DHT22;2411;47.060;15.064;2023-05-10T13:13:50;18.50;1.00
4795;DHT22;2411;47.060;15.064;2023-05-10T13:16:38;18.50;1.00
4795;DHT22;2411;47.060;15.064;2023-05-10T13:19:25;18.50;1.00
4795;DHT22;2411;47.060;15.064;2023-05-10T13:22:13;18.50;1.00
4795;DHT22;2411;47.060;15.064;2023-05-10T13:25:05;18.60;1.00
4795;DHT22;2411;47.060;15.064;2023-05-10T13:27:52;18.60;1.00
4795;DHT22;2411;47.060;15.064;2023-05-10T13:30:39;18.80;1.00
4795;DHT22;2411;47.060;15.064;2023-05-10T13:33:27;18.70;1.00
4795;DHT22;2411;47.060;15.064;2023-05-10T13:36:14;18.60;1.00
4795;DHT22;2411;47.060;15.064;2023-05-10T13:39:02;18.60;1.00
4795;DHT22;2411;47.060;15.064;2023-05-10T13:41:50;18.50;1.00
4795;DHT22;2411;47.060;15.064;2023-05-10T13:44:39;18.70;1.00
4795;DHT22;2411;47.060;15.064;2023-05-10T13:47:27;18.90;1.00
4795;DHT22;2411;47.060;15.064;2023-05-10T13:50:15;18.70;1.00
4795;DHT22;2411;47.060;15.064;2023-05-10T13:53:02;18.70;1.00
4795;DHT22;2411;47.060;15.064;2023-05-10T13:55:50;18.30;1.00
4795;DHT22;2411;47.060;15.064;2023-05-10T13:58:37;18.30;1.00
4795;DHT22;2411;47.060;15.064;2023-05-10T14:05:06;17.60;1.00
4795;DHT22;2411;47.060;15.064;2023-05-10T14:07:34;17.20;1.00
4795;DHT22;2411;47.060;15.064;2023-05-10T14:10:01;16.90;1.00
4795;DHT22;2411;47.060;15.064;2023-05-10T14:12:28;16.80;1.00
4795;DHT22;2411;47.060;15.064;2023-05-10T14:14:55;16.50;1.00
4795;DHT22;2411;47.060;15.064;2023-05-10T14:17:23;16.30;1.00
4795;DHT22;2411;47.060;15.064;2023-05-10T14:19:50;16.20;1.00
4795;DHT22;2411;47.060;15.064;2023-05-10T14:22:18;16.00;1.00
4795;DHT22;2411;47.060;15.064;2023-05-10T14:24:45;16.00;1.00
4795;DHT22;2411;47.060;15.064;2023-05-10T14:27:14;15.90;1.00
4795;DHT22;2411;47.060;15.064;2023-05-10T14:29:41;15.60;1.00
4795;DHT22;2411;47.060;15.064;2023-05-10T14:32:08;15.60;1.00
4795;DHT22;2411;47.060;15.064;2023-05-10T14:34:36;15.50;1.00
4795;DHT22;2411;47.060;15.064;2023-05-10T14:37:03;15.30;1.00
4795;DHT22;2411;47.060;15.064;2023-05-10T14:39:31;15.40;1.00
4795;DHT22;2411;47.060;15.064;2023-05-10T14:41:58;15.50;1.00
4795;DHT22;2411;47.060;15.064;2023-05-10T14:44:25;15.40;1.00
4795;DHT22;2411;47.060;15.064;2023-05-10T14:46:53;15.40;1.00
4795;DHT22;2411;47.060;15.064;2023-05-10T14:49:20;15.40;1.00
4795;DHT22;2411;47.060;15.064;2023-05-10T14:51:49;15.50;1.00
4795;DHT22;2411;47.060;15.064;2023-05-10T14:54:16;15.60;1.00
4795;DHT22;2411;47.060;15.064;2023-05-10T14:56:44;15.40;1.00
4795;DHT22;2411;47.060;15.064;2023-05-10T14:59:11;15.40;1.00
4795;DHT22;2411;47.060;15.064;2023-05-10T15:01:39;15.50;1.00
4795;DHT22;2411;47.060;15.064;2023-05-10T15:04:09;15.40;1.00
4795;DHT22;2411;47.060;15.064;2023-05-10T15:06:36;15.30;1.00
4795;DHT22;2411;47.060;15.064;2023-05-10T15:09:03;15.30;1.00
4795;DHT22;2411;47.060;15.064;2023-05-10T15:11:31;15.30;1.00
4795;DHT22;2411;47.060;15.064;2023-05-10T15:13:58;15.20;1.00
4795;DHT22;2411;47.060;15.064;2023-05-10T15:16:25;15.30;1.00
4795;DHT22;2411;47.060;15.064;2023-05-10T15:18:53;15.20;1.00
4795;DHT22;2411;47.060;15.064;2023-05-10T15:21:20;15.20;1.00
4795;DHT22;2411;47.060;15.064;2023-05-10T15:23:47;15.20;1.00
4795;DHT22;2411;47.060;15.064;2023-05-10T15:26:15;15.20;1.00
4795;DHT22;2411;47.060;15.064;2023-05-10T15:28:42;15.30;1.00
4795;DHT22;2411;47.060;15.064;2023-05-10T15:31:09;15.30;1.00
4795;DHT22;2411;47.060;15.064;2023-05-10T15:33:37;15.50;1.00
4795;DHT22;2411;47.060;15.064;2023-05-10T15:36:05;15.50;1.00
4795;DHT22;2411;47.060;15.064;2023-05-10T15:38:33;15.60;1.00
4795;DHT22;2411;47.060;15.064;2023-05-10T15:41:00;15.60;1.00
4795;DHT22;2411;47.060;15.064;2023-05-10T15:43:28;15.60;1.00
4795;DHT22;2411;47.060;15.064;2023-05-10T15:45:55;15.70;1.00
4795;DHT22;2411;47.060;15.064;2023-05-10T15:48:22;15.70;1.00
4795;DHT22;2411;47.060;15.064;2023-05-10T15:50:49;15.80;1.00
4795;DHT22;2411;47.060;15.064;2023-05-10T15:53:16;15.70;1.00
4795;DHT22;2411;47.060;15.064;2023-05-10T15:55:43;15.70;1.00
4795;DHT22;2411;47.060;15.064;2023-05-10T15:58:11;15.80;1.00
4795;DHT22;2411;47.060;15.064;2023-05-10T16:00:38;15.70;1.00
4795;DHT22;2411;47.060;15.064;2023-05-10T16:03:05;15.70;1.00
4795;DHT22;2411;47.060;15.064;2023-05-10T16:05:32;15.50;1.00
4795;DHT22;2411;47.060;15.064;2023-05-10T16:08:00;15.50;1.00
4795;DHT22;2411;47.060;15.064;2023-05-10T16:10:30;15.30;1.00
4795;DHT22;2411;47.060;15.064;2023-05-10T16:12:59;15.20;1.00
4795;DHT22;2411;47.060;15.064;2023-05-10T16:15:26;15.30;1.00
4795;DHT22;2411;47.060;15.064;2023-05-10T16:17:53;15.20;1.00
4795;DHT22;2411;47.060;15.064;2023-05-10T16:20:21;15.10;1.00
4795;DHT22;2411;47.060;15.064;2023-05-10T16:22:48;15.00;1.00
4795;DHT22;2411;47.060;15.064;2023-05-10T16:25:15;15.00;1.00
4795;DHT22;2411;47.060;15.064;2023-05-10T16:27:43;15.00;1.00
4795;DHT22;2411;47.060;15.064;2023-05-10T16:30:10;15.00;1.00
4795;DHT22;2411;47.060;15.064;2023-05-10T16:32:38;15.10;1.00
4795;DHT22;2411;47.060;15.064;2023-05-10T16:35:06;15.10;1.00
4795;DHT22;2411;47.060;15.064;2023-05-10T16:37:33;15.10;1.00
4795;DHT22;2411;47.060;15.064;2023-05-10T16:40:00;15.00;1.00
4795;DHT22;2411;47.060;15.064;2023-05-10T16:42:28;15.00;1.00
4795;DHT22;2411;47.060;15.064;2023-05-10T16:44:55;15.00;1.00
4795;DHT22;2411;47.060;15.064;2023-05-10T16:47:22;14.90;1.00
4795;DHT22;2411;47.060;15.064;2023-05-10T16:49:52;14.90;1.00
4795;DHT22;2411;47.060;15.064;2023-05-10T16:52:19;14.80;1.00
4795;DHT22;2411;47.060;15.064;2023-05-10T16:54:46;14.80;1.00
4795;DHT22;2411;47.060;15.064;2023-05-10T16:57:14;14.80;1.00
4795;DHT22;2411;47.060;15.064;2023-05-10T16:59:41;14.60;1.00
4795;DHT22;2411;47.060;15.064;2023-05-10T17:02:12;14.60;1.00
4795;DHT22;2411;47.060;15.064;2023-05-10T17:04:41;14.50;1.00
4795;DHT22;2411;47.060;15.064;2023-05-10T17:07:08;14.40;1.00
4795;DHT22;2411;47.060;15.064;2023-05-10T17:09:35;14.40;1.00
4795;DHT22;2411;47.060;15.064;2023-05-10T17:12:05;14.30;1.00
4795;DHT22;2411;47.060;15.064;2023-05-10T17:14:32;14.20;1.00
4795;DHT22;2411;47.060;15.064;2023-05-10T17:17:00;14.20;1.00
4795;DHT22;2411;47.060;15.064;2023-05-10T17:19:28;14.10;1.00
4795;DHT22;2411;47.060;15.064;2023-05-10T17:21:58;14.10;1.00
4795;DHT22;2411;47.060;15.064;2023-05-10T17:24:25;14.10;1.00
4795;DHT22;2411;47.060;15.064;2023-05-10T17:26:55;14.10;1.00
4795;DHT22;2411;47.060;15.064;2023-05-10T17:29:23;14.00;1.00
4795;DHT22;2411;47.060;15.064;2023-05-10T17:31:50;14.00;1.00
4795;DHT22;2411;47.060;15.064;2023-05-10T17:34:17;14.00;1.00
4795;DHT22;2411;47.060;15.064;2023-05-10T17:36:47;13.90;1.00
4795;DHT22;2411;47.060;15.064;2023-05-10T17:39:15;13.90;1.00
4795;DHT22;2411;47.060;15.064;2023-05-10T17:41:42;13.80;1.00
4795;DHT22;2411;47.060;15.064;2023-05-10T17:44:09;13.80;1.00
4795;DHT22;2411;47.060;15.064;2023-05-10T17:46:36;13.90;1.00
4795;DHT22;2411;47.060;15.064;2023-05-10T17:49:03;13.80;1.00
4795;DHT22;2411;47.060;15.064;2023-05-10T17:51:30;13.90;1.00
4795;DHT22;2411;47.060;15.064;2023-05-10T17:53:58;13.80;1.00
4795;DHT22;2411;47.060;15.064;2023-05-10T17:56:26;13.80;1.00
4795;DHT22;2411;47.060;15.064;2023-05-10T17:58:53;13.80;1.00
4795;DHT22;2411;47.060;15.064;2023-05-10T18:01:20;13.80;1.00
4795;DHT22;2411;47.060;15.064;2023-05-10T18:03:48;13.70;1.00
4795;DHT22;2411;47.060;15.064;2023-05-10T18:06:15;13.60;1.00
4795;DHT22;2411;47.060;15.064;2023-05-10T18:08:43;13.50;1.00
4795;DHT22;2411;47.060;15.064;2023-05-10T18:11:10;13.50;1.00
4795;DHT22;2411;47.060;15.064;2023-05-10T18:13:38;13.50;1.00
4795;DHT22;2411;47.060;15.064;2023-05-10T18:16:08;13.50;1.00